createdAt,value
2023-02-22T00:01:51.670Z,19.30
2023-02-22T00:04:28.006Z,19.73
2023-02-22T00:07:02.418Z,18.97
2023-02-22T00:09:38.276Z,19.03
2023-02-22T00:12:13.160Z,20.50
2023-02-22T00:14:46.847Z,18.83
2023-02-22T00:17:20.823Z,20.30
2023-02-22T00:19:55.019Z,19.37
2023-02-22T00:22:29.114Z,20.40
2023-02-22T00:25:03.338Z,19.80
2023-02-22T00:27:38.592Z,18.80
2023-02-22T00:30:19.696Z,19.33
2023-02-22T00:32:53.942Z,20.43
2023-02-22T00:35:30.636Z,20.87
2023-02-22T00:38:05.923Z,20.77
2023-02-22T00:40:40.583Z,19.00
2023-02-22T00:43:15.856Z,19.30
2023-02-22T00:45:50.267Z,20.30
2023-02-22T00:48:23.727Z,18.67
2023-02-22T00:50:57.674Z,17.90
2023-02-22T00:53:31.149Z,17.50
2023-02-22T00:56:04.820Z,16.40
2023-02-22T00:58:40.348Z,15.23
2023-02-22T01:01:13.919Z,16.13
2023-02-22T01:03:47.705Z,14.93
2023-02-22T01:06:22.833Z,15.93
2023-02-22T01:08:56.768Z,13.80
2023-02-22T01:11:31.172Z,13.50
2023-02-22T01:14:09.980Z,13.73
2023-02-22T01:16:44.849Z,12.97
2023-02-22T01:19:18.665Z,14.27
2023-02-22T01:21:52.944Z,12.50
2023-02-22T01:24:26.635Z,11.90
2023-02-22T01:27:00.201Z,11.50
2023-02-22T01:29:35.535Z,14.53
2023-02-22T01:32:12.471Z,14.33
2023-02-22T01:34:46.777Z,15.93
2023-02-22T01:37:20.298Z,15.17
2023-02-22T01:39:54.230Z,12.90
2023-02-22T01:42:29.347Z,14.10
2023-02-22T01:45:45.558Z,14.27
2023-02-22T01:48:29.735Z,13.03
2023-02-22T01:51:11.259Z,11.67
2023-02-22T01:53:51.754Z,12.47
2023-02-22T01:56:29.404Z,11.63
2023-02-22T01:59:08.762Z,12.13
2023-02-22T02:01:45.103Z,12.37
2023-02-22T02:04:25.891Z,12.07
2023-02-22T02:07:08.667Z,12.63
2023-02-22T02:09:53.869Z,9.93
2023-02-22T02:12:32.375Z,11.17
2023-02-22T02:15:29.316Z,12.40
2023-02-22T02:18:09.027Z,10.73
2023-02-22T02:21:09.467Z,11.13
2023-02-22T02:24:13.502Z,10.70
2023-02-22T02:27:21.159Z,11.83
2023-02-22T02:30:50.193Z,10.03
2023-02-22T02:33:34.655Z,11.57
2023-02-22T02:36:17.245Z,10.63
2023-02-22T02:38:59.509Z,11.63
2023-02-22T02:41:38.639Z,10.97
2023-02-22T02:44:22.898Z,10.70
2023-02-22T02:47:02.790Z,9.13
2023-02-22T02:49:45.347Z,10.63
2023-02-22T02:52:23.273Z,10.50
2023-02-22T02:54:59.160Z,10.60
2023-02-22T02:57:33.111Z,10.20
2023-02-22T03:00:22.358Z,11.70
2023-02-22T03:03:15.870Z,10.07
2023-02-22T03:06:28.793Z,10.53
2023-02-22T03:09:14.762Z,11.03
2023-02-22T03:12:02.616Z,10.63
2023-02-22T03:14:48.580Z,9.53
2023-02-22T03:17:37.069Z,10.97
2023-02-22T03:20:16.396Z,11.10
2023-02-22T03:23:02.992Z,10.27
2023-02-22T03:25:43.744Z,8.03
2023-02-22T03:28:26.369Z,10.53
2023-02-22T03:31:05.117Z,10.13
2023-02-22T03:33:45.642Z,11.13
2023-02-22T03:36:26.622Z,10.20
2023-02-22T03:39:04.331Z,9.87
2023-02-22T03:41:41.174Z,9.43
2023-02-22T03:44:21.060Z,8.70
2023-02-22T03:46:57.542Z,10.07
2023-02-22T03:49:37.251Z,8.20
2023-02-22T03:52:12.863Z,9.00
2023-02-22T03:54:48.144Z,8.50
2023-02-22T03:57:27.996Z,8.70
2023-02-22T04:00:02.115Z,7.67
2023-02-22T04:02:36.852Z,7.13
2023-02-22T04:05:11.018Z,7.90
2023-02-22T04:07:45.435Z,8.03
2023-02-22T04:10:21.344Z,7.93
2023-02-22T04:12:55.320Z,7.80
2023-02-22T04:15:28.877Z,6.77
2023-02-22T04:18:02.523Z,7.47
2023-02-22T04:20:36.283Z,7.23
2023-02-22T04:23:10.913Z,5.87
2023-02-22T04:25:46.447Z,6.60
2023-02-22T04:28:20.457Z,6.80
2023-02-22T04:30:54.035Z,6.83
2023-02-22T04:33:27.710Z,6.87
2023-02-22T04:36:01.529Z,6.87
2023-02-22T04:38:35.198Z,6.67
2023-02-22T04:41:10.243Z,8.17
2023-02-22T04:43:43.878Z,5.97
2023-02-22T04:46:17.907Z,6.23
2023-02-22T04:48:51.395Z,6.07
2023-02-22T04:51:25.468Z,5.73
2023-02-22T04:53:59.394Z,6.03
2023-02-22T04:56:34.951Z,4.87
2023-02-22T04:59:08.636Z,4.80
2023-02-22T05:01:42.252Z,5.23
2023-02-22T05:04:16.539Z,5.00
2023-02-22T05:06:50.418Z,5.67
2023-02-22T05:09:23.867Z,4.67
2023-02-22T05:11:59.471Z,5.67
2023-02-22T05:14:33.338Z,5.03
2023-02-22T05:17:07.164Z,5.23
2023-02-22T05:19:41.097Z,4.57
2023-02-22T05:22:14.412Z,4.60
2023-02-22T05:24:48.114Z,4.20
2023-02-22T05:27:23.322Z,4.50
2023-02-22T05:29:57.163Z,4.47
2023-02-22T05:32:30.779Z,5.57
2023-02-22T05:35:06.506Z,4.37
2023-02-22T05:37:40.460Z,4.53
2023-02-22T05:40:15.882Z,4.63
2023-02-22T05:42:52.568Z,4.10
2023-02-22T05:45:29.120Z,4.70
2023-02-22T05:48:03.946Z,3.83
2023-02-22T05:50:37.543Z,5.23
2023-02-22T05:53:11.159Z,4.00
2023-02-22T05:55:46.442Z,4.23
2023-02-22T05:58:21.621Z,4.43
2023-02-22T06:00:56.658Z,4.27
2023-02-22T06:03:30.601Z,4.10
2023-02-22T06:06:04.887Z,3.93
2023-02-22T06:08:38.777Z,4.20
2023-02-22T06:11:13.111Z,3.70
2023-02-22T06:13:53.215Z,3.77
2023-02-22T06:16:27.326Z,3.60
2023-02-22T06:19:01.682Z,4.53
2023-02-22T06:21:35.828Z,3.80
2023-02-22T06:24:09.822Z,3.60
2023-02-22T06:26:43.650Z,3.87
2023-02-22T06:29:19.357Z,3.63
2023-02-22T06:31:53.281Z,4.20
2023-02-22T06:34:27.326Z,3.60
2023-02-22T06:37:01.500Z,4.23
2023-02-22T06:39:35.270Z,3.50
2023-02-22T06:42:08.845Z,3.80
2023-02-22T06:44:44.505Z,4.00
2023-02-22T06:47:18.526Z,4.57
2023-02-22T06:49:55.991Z,4.70
2023-02-22T06:52:29.677Z,4.07
2023-02-22T06:55:03.476Z,4.33
2023-02-22T06:57:37.253Z,4.43
2023-02-22T07:00:17.446Z,4.17
2023-02-22T07:02:52.575Z,4.60
2023-02-22T07:05:28.648Z,4.47
2023-02-22T07:08:08.765Z,4.23
2023-02-22T07:10:42.870Z,4.70
2023-02-22T07:13:17.948Z,4.20
2023-02-22T07:15:53.270Z,4.27
2023-02-22T07:18:27.887Z,4.47
2023-02-22T07:21:02.802Z,4.43
2023-02-22T07:23:37.706Z,4.03
2023-02-22T07:26:11.584Z,4.00
2023-02-22T07:28:45.448Z,4.60
2023-02-22T07:31:21.377Z,4.57
2023-02-22T07:33:54.902Z,5.17
2023-02-22T07:36:28.712Z,4.63
2023-02-22T07:39:02.347Z,5.13
2023-02-22T07:41:36.505Z,5.00
2023-02-22T07:44:10.244Z,5.50
2023-02-22T07:46:50.733Z,4.97
2023-02-22T07:49:24.322Z,5.17
2023-02-22T07:51:58.615Z,5.73
2023-02-22T07:54:32.113Z,5.27
2023-02-22T07:57:05.952Z,5.50
2023-02-22T07:59:40.379Z,5.13
2023-02-22T08:02:19.100Z,6.20
2023-02-22T08:04:52.874Z,6.10
2023-02-22T08:07:26.890Z,5.57
2023-02-22T08:10:00.581Z,5.17
2023-02-22T08:12:34.615Z,5.10
2023-02-22T08:15:11.203Z,5.97
2023-02-22T08:17:46.597Z,6.30
2023-02-22T08:20:20.608Z,6.37
2023-02-22T08:22:54.590Z,4.93
2023-02-22T08:25:31.235Z,5.50
2023-02-22T08:28:08.148Z,5.40
2023-02-22T08:30:43.999Z,5.63
2023-02-22T08:33:20.606Z,5.47
2023-02-22T08:35:54.565Z,6.07
2023-02-22T08:38:30.863Z,6.07
2023-02-22T08:41:04.647Z,6.63
2023-02-22T08:43:38.319Z,6.50
2023-02-22T08:46:12.049Z,6.70
2023-02-22T08:48:54.208Z,6.73
2023-02-22T08:51:27.924Z,6.03
2023-02-22T08:54:01.941Z,6.23
2023-02-22T08:56:35.902Z,6.53
2023-02-22T08:59:09.405Z,7.03
2023-02-22T09:01:42.793Z,6.47
2023-02-22T09:04:18.381Z,6.57
2023-02-22T09:06:52.041Z,6.30
2023-02-22T09:09:25.682Z,7.03
2023-02-22T09:11:59.664Z,7.27
2023-02-22T09:14:34.247Z,7.33
2023-02-22T09:17:07.952Z,7.40
2023-02-22T09:19:42.849Z,7.20
2023-02-22T09:22:16.585Z,6.43
2023-02-22T09:24:50.290Z,7.07
2023-02-22T09:27:23.966Z,6.67
2023-02-22T09:29:57.564Z,7.50
2023-02-22T09:32:31.481Z,7.23
2023-02-22T09:35:09.068Z,8.10
2023-02-22T09:37:45.158Z,8.20
2023-02-22T09:40:25.298Z,8.10
2023-02-22T09:43:16.785Z,7.83
2023-02-22T09:46:19.662Z,8.57
2023-02-22T09:49:06.737Z,7.90
2023-02-22T09:51:49.687Z,7.97
2023-02-22T09:54:30.159Z,8.23
2023-02-22T09:57:09.826Z,8.27
2023-02-22T09:59:49.244Z,7.77
2023-02-22T10:02:31.877Z,7.70
2023-02-22T10:05:18.161Z,8.77
2023-02-22T10:08:01.180Z,8.33
2023-02-22T10:10:40.349Z,8.40
2023-02-22T10:13:28.130Z,7.60
2023-02-22T10:16:07.865Z,8.07
2023-02-22T10:19:18.320Z,7.70
2023-02-22T10:22:11.876Z,7.67
2023-02-22T10:25:00.970Z,8.47
2023-02-22T10:27:42.562Z,8.00
2023-02-22T10:30:25.381Z,8.17
2023-02-22T10:33:08.003Z,8.23
2023-02-22T10:35:42.644Z,9.00
2023-02-22T10:38:22.247Z,9.33
2023-02-22T10:41:02.193Z,7.90
2023-02-22T10:43:38.282Z,9.53
2023-02-22T10:46:18.877Z,8.63
2023-02-22T10:48:57.037Z,7.50
2023-02-22T10:51:31.112Z,7.83
2023-02-22T10:54:27.135Z,8.37
2023-02-22T10:57:04.206Z,7.77
2023-02-22T10:59:43.382Z,7.93
2023-02-22T11:02:25.004Z,6.83
2023-02-22T11:05:02.423Z,5.57
2023-02-22T11:07:38.254Z,6.33
2023-02-22T11:10:12.680Z,6.07
2023-02-22T11:12:49.814Z,5.13
2023-02-22T11:15:30.312Z,5.40
2023-02-22T11:18:04.184Z,5.27
2023-02-22T11:20:41.280Z,5.03
2023-02-22T11:23:15.436Z,5.07
2023-02-22T11:25:52.877Z,4.80
2023-02-22T11:28:33.263Z,5.13
2023-02-22T11:31:18.801Z,4.93
2023-02-22T11:36:40.978Z,4.70
2023-02-22T11:39:27.727Z,5.13
2023-02-22T11:42:24.691Z,5.70
2023-02-22T11:45:21.073Z,5.00
2023-02-22T11:47:59.063Z,4.43
2023-02-22T11:50:40.814Z,4.10
2023-02-22T11:53:31.012Z,4.20
2023-02-22T11:56:25.527Z,4.20
2023-02-22T11:59:26.842Z,4.27
2023-02-22T12:02:24.788Z,3.40
2023-02-22T12:05:21.280Z,4.03
2023-02-22T12:08:19.828Z,3.53
2023-02-22T12:11:10.256Z,3.60
2023-02-22T12:14:09.056Z,3.30
2023-02-22T12:17:19.130Z,3.03
2023-02-22T12:20:02.659Z,3.03
2023-02-22T12:22:43.924Z,2.70
2023-02-22T12:25:24.168Z,2.93
2023-02-22T12:28:10.111Z,2.97
2023-02-22T12:31:05.257Z,2.97
2023-02-22T12:33:55.605Z,2.90
2023-02-22T12:36:41.132Z,3.10
2023-02-22T12:39:51.856Z,2.63
2023-02-22T12:42:38.075Z,2.53
2023-02-22T12:45:22.644Z,2.53
2023-02-22T12:48:18.291Z,2.60
2023-02-22T12:51:01.385Z,2.80
2023-02-22T12:53:41.395Z,2.53
2023-02-22T12:56:26.005Z,2.70
2023-02-22T12:59:09.663Z,2.50
2023-02-22T13:01:50.367Z,3.10
2023-02-22T13:04:24.777Z,2.70
2023-02-22T13:07:13.130Z,3.07
2023-02-22T13:10:30.783Z,2.30
2023-02-22T13:13:17.743Z,2.13
2023-02-22T13:16:01.264Z,2.50
2023-02-22T13:18:44.239Z,2.90
2023-02-22T13:21:30.326Z,2.40
2023-02-22T13:24:16.385Z,2.70
2023-02-22T13:26:58.079Z,2.57
2023-02-22T13:29:38.289Z,2.50
2023-02-22T13:32:31.725Z,2.63
2023-02-22T13:35:55.528Z,2.80
2023-02-22T13:39:27.982Z,2.60
2023-02-22T13:42:35.676Z,2.53
2023-02-22T13:45:51.807Z,3.00
2023-02-22T13:49:13.749Z,3.03
2023-02-22T13:51:52.717Z,2.83
2023-02-22T13:54:36.684Z,2.87
2023-02-22T13:57:24.921Z,3.23
2023-02-22T14:00:44.464Z,2.87
2023-02-22T14:03:41.248Z,3.00
2023-02-22T14:06:41.839Z,3.20
2023-02-22T14:09:20.063Z,3.17
2023-02-22T14:11:57.060Z,3.70
2023-02-22T14:14:32.723Z,3.43
2023-02-22T14:17:27.545Z,3.40
2023-02-22T14:20:32.539Z,3.77
2023-02-22T14:23:37.114Z,3.50
2023-02-22T14:26:25.845Z,3.60
2023-02-22T14:29:02.872Z,3.87
2023-02-22T14:32:04.222Z,3.27
2023-02-22T14:34:58.342Z,3.30
2023-02-22T14:37:39.140Z,3.33
2023-02-22T14:40:25.974Z,3.50
2023-02-22T14:43:09.667Z,3.70
2023-02-22T14:45:53.861Z,3.43
2023-02-22T14:48:39.477Z,3.63
2023-02-22T14:51:22.733Z,3.50
2023-02-22T14:54:10.253Z,3.30
2023-02-22T14:56:53.810Z,3.13
2023-02-22T14:59:31.162Z,3.60
2023-02-22T15:02:12.939Z,3.43
2023-02-22T15:04:56.377Z,3.43
2023-02-22T15:07:35.833Z,3.23
2023-02-22T15:10:26.198Z,4.33
2023-02-22T15:13:13.013Z,4.03
2023-02-22T15:15:49.635Z,4.23
2023-02-22T15:18:30.321Z,4.17
2023-02-22T15:21:13.411Z,4.23
2023-02-22T15:23:50.429Z,4.17
2023-02-22T15:26:35.263Z,4.07
2023-02-22T15:29:14.625Z,4.20
2023-02-22T15:31:48.939Z,4.93
2023-02-22T15:34:29.235Z,4.60
2023-02-22T15:37:28.033Z,4.47
2023-02-22T15:40:14.876Z,4.80
2023-02-22T15:42:53.064Z,3.87
2023-02-22T15:45:28.551Z,4.13
2023-02-22T15:48:03.359Z,4.83
2023-02-22T15:50:37.070Z,4.07
2023-02-22T15:53:28.449Z,5.07
2023-02-22T15:56:10.642Z,5.03
2023-02-22T15:58:48.390Z,4.70
2023-02-22T16:01:22.954Z,4.90
2023-02-22T16:04:00.987Z,4.97
2023-02-22T16:06:37.365Z,5.20
2023-02-22T16:09:17.412Z,4.30
2023-02-22T16:11:53.577Z,5.03
2023-02-22T16:14:31.241Z,4.90
2023-02-22T16:17:31.287Z,5.03
2023-02-22T16:20:34.185Z,5.17
2023-02-22T16:23:27.378Z,4.60
2023-02-22T16:26:28.314Z,6.00
2023-02-22T16:29:06.319Z,5.03
2023-02-22T16:31:42.241Z,4.90
2023-02-22T16:34:16.569Z,4.90
2023-02-22T16:36:52.361Z,5.40
2023-02-22T16:39:28.481Z,4.43
2023-02-22T16:42:10.067Z,4.47
2023-02-22T16:44:43.752Z,4.70
2023-02-22T16:47:17.301Z,4.67
2023-02-22T16:49:53.275Z,4.67
2023-02-22T16:52:28.252Z,5.33
2023-02-22T16:55:03.559Z,5.43
2023-02-22T16:57:43.005Z,5.30
2023-02-22T17:00:31.163Z,5.27
2023-02-22T17:03:06.277Z,5.60
2023-02-22T17:05:40.024Z,5.23
2023-02-22T17:08:16.288Z,5.50
2023-02-22T17:10:52.008Z,4.70
2023-02-22T17:13:30.955Z,4.73
2023-02-22T17:16:05.664Z,5.57
2023-02-22T17:18:40.896Z,4.60
2023-02-22T17:21:16.764Z,5.57
2023-02-22T17:23:53.287Z,5.47
2023-02-22T17:26:28.435Z,5.63
2023-02-22T17:29:03.530Z,5.93
2023-02-22T17:31:38.737Z,5.30
2023-02-22T17:34:13.418Z,6.00
2023-02-22T17:36:47.870Z,5.80
2023-02-22T17:39:21.915Z,6.87
2023-02-22T17:42:00.094Z,5.83
2023-02-22T17:44:35.499Z,6.30
2023-02-22T17:47:09.133Z,6.20
2023-02-22T17:49:44.287Z,6.40
2023-02-22T17:52:17.774Z,6.77
2023-02-22T17:54:53.341Z,6.40
2023-02-22T17:57:27.137Z,7.53
2023-02-22T18:00:12.756Z,6.80
2023-02-22T18:02:47.393Z,8.07
2023-02-22T18:05:21.333Z,6.53
2023-02-22T18:07:55.339Z,8.00
2023-02-22T18:10:29.325Z,6.80
2023-02-22T18:13:04.392Z,6.80
2023-02-22T18:15:43.661Z,7.30
2023-02-22T18:18:18.596Z,7.30
2023-02-22T18:20:55.980Z,7.83
2023-02-22T18:23:32.886Z,7.20
2023-02-22T18:26:11.833Z,6.77
2023-02-22T18:28:48.712Z,7.00
2023-02-22T18:31:25.149Z,8.13
2023-02-22T18:34:00.225Z,8.70
2023-02-22T18:36:34.041Z,7.73
2023-02-22T18:39:12.076Z,8.20
2023-02-22T18:41:48.902Z,8.27
2023-02-22T18:44:22.830Z,8.10
2023-02-22T18:46:57.998Z,8.00
2023-02-22T18:49:31.746Z,7.73
2023-02-22T18:52:05.485Z,8.37
2023-02-22T18:54:40.075Z,8.40
2023-02-22T18:57:15.161Z,7.60
2023-02-22T18:59:49.037Z,8.00
2023-02-22T19:02:25.623Z,7.87
2023-02-22T19:05:00.473Z,8.83
2023-02-22T19:07:34.244Z,9.30
2023-02-22T19:10:09.463Z,9.20
2023-02-22T19:12:43.345Z,9.97
2023-02-22T19:15:17.192Z,9.23
2023-02-22T19:17:52.232Z,9.40
2023-02-22T19:20:32.914Z,8.97
2023-02-22T19:23:10.680Z,9.13
2023-02-22T19:25:45.723Z,9.30
2023-02-22T19:28:20.028Z,10.43
2023-02-22T19:30:53.850Z,11.80
2023-02-22T19:33:29.712Z,14.03
2023-02-22T19:36:03.762Z,14.93
2023-02-22T19:38:37.571Z,17.13
2023-02-22T19:41:18.421Z,17.30
2023-02-22T19:43:54.297Z,16.50
2023-02-22T19:46:28.220Z,18.13
2023-02-22T19:49:05.388Z,19.70
2023-02-22T19:51:38.754Z,16.23
2023-02-22T19:54:19.563Z,15.40
2023-02-22T19:56:53.326Z,13.47
2023-02-22T19:59:26.988Z,14.43
2023-02-22T20:02:01.859Z,14.90
2023-02-22T20:04:38.054Z,14.20
2023-02-22T20:07:12.672Z,16.07
2023-02-22T20:09:46.684Z,17.63
2023-02-22T20:12:21.777Z,15.07
2023-02-22T20:14:55.225Z,13.03
2023-02-22T20:17:29.559Z,14.00
2023-02-22T20:20:06.190Z,13.07
2023-02-22T20:22:41.450Z,14.33
2023-02-22T20:25:15.181Z,14.80
2023-02-22T20:27:50.018Z,15.97
2023-02-22T20:30:23.635Z,17.10
2023-02-22T20:32:57.587Z,15.60
2023-02-22T20:35:34.144Z,15.00
2023-02-22T20:38:08.684Z,14.87
2023-02-22T20:40:43.231Z,16.37
2023-02-22T20:43:17.336Z,15.77
2023-02-22T20:45:51.117Z,14.93
2023-02-22T20:48:27.486Z,16.07
2023-02-22T20:51:09.368Z,15.60
2023-02-22T20:53:45.107Z,14.50
2023-02-22T20:56:23.514Z,15.33
2023-02-22T20:58:59.063Z,15.17
2023-02-22T21:01:34.508Z,14.90
2023-02-22T21:04:10.371Z,14.83
2023-02-22T21:06:46.957Z,14.43
2023-02-22T21:09:22.865Z,13.67
2023-02-22T21:11:56.825Z,13.57
2023-02-22T21:14:32.546Z,13.83
2023-02-22T21:17:08.494Z,14.47
2023-02-22T21:19:42.170Z,13.73
2023-02-22T21:22:17.720Z,15.43
2023-02-22T21:24:52.610Z,13.63
2023-02-22T21:27:26.392Z,15.17
2023-02-22T21:30:12.765Z,13.97
2023-02-22T21:32:46.370Z,13.07
2023-02-22T21:35:21.383Z,15.07
2023-02-22T21:37:57.161Z,15.23
2023-02-22T21:40:30.748Z,14.73
2023-02-22T21:43:04.252Z,15.13
2023-02-22T21:45:38.903Z,15.73
2023-02-22T21:48:12.388Z,15.60
2023-02-22T21:50:48.337Z,15.70
2023-02-22T21:53:24.054Z,15.00
2023-02-22T21:55:57.494Z,14.83
2023-02-22T21:58:31.147Z,14.53
2023-02-22T22:01:08.683Z,14.90
2023-02-22T22:03:42.125Z,13.83
2023-02-22T22:06:15.987Z,12.70
2023-02-22T22:08:53.649Z,14.97
2023-02-22T22:11:30.740Z,14.37
2023-02-22T22:14:04.409Z,12.73
2023-02-22T22:16:38.309Z,12.50
2023-02-22T22:19:13.443Z,13.83
2023-02-22T22:21:49.296Z,14.83
2023-02-22T22:24:25.228Z,13.50
2023-02-22T22:27:03.788Z,15.37
2023-02-22T22:29:37.452Z,16.43
2023-02-22T22:32:11.149Z,16.10
2023-02-22T22:34:44.794Z,15.03
2023-02-22T22:37:18.448Z,14.90
2023-02-22T22:39:53.549Z,15.30
2023-02-22T22:42:27.540Z,14.93
2023-02-22T22:45:01.199Z,14.57
2023-02-22T22:47:34.684Z,16.63
2023-02-22T22:50:10.899Z,15.47
2023-02-22T22:52:44.483Z,17.83
2023-02-22T22:55:19.840Z,16.30
2023-02-22T22:57:53.609Z,17.13
2023-02-22T23:00:31.658Z,18.40
2023-02-22T23:39:05.231Z,16.57
2023-02-22T23:42:02.524Z,18.60
2023-02-22T23:45:00.104Z,17.37
2023-02-22T23:47:58.809Z,17.23
2023-02-22T23:50:56.690Z,16.30
2023-02-22T23:53:36.764Z,16.47
2023-02-22T23:56:13.539Z,18.57
2023-02-22T23:58:50.826Z,17.53
